createdAt,value
2022-08-30T00:02:25.386Z,15.74
2022-08-30T00:04:55.687Z,15.73
2022-08-30T00:07:27.634Z,15.68
2022-08-30T00:09:58.033Z,15.69
2022-08-30T00:12:28.485Z,15.70
2022-08-30T00:14:58.542Z,15.74
2022-08-30T00:17:28.634Z,15.73
2022-08-30T00:19:59.833Z,15.69
2022-08-30T00:22:33.340Z,15.68
2022-08-30T00:25:03.760Z,15.69
2022-08-30T00:27:34.371Z,15.69
2022-08-30T00:30:06.280Z,15.70
2022-08-30T00:32:36.730Z,15.75
2022-08-30T00:35:09.440Z,15.77
2022-08-30T00:37:42.471Z,15.85
2022-08-30T00:40:16.180Z,15.86
2022-08-30T00:42:50.691Z,15.88
2022-08-30T00:45:24.591Z,15.89
2022-08-30T00:47:54.909Z,15.88
2022-08-30T00:50:29.710Z,15.87
2022-08-30T00:53:03.564Z,15.88
2022-08-30T00:55:34.272Z,15.88
2022-08-30T00:58:12.409Z,15.91
2022-08-30T01:00:42.912Z,15.89
2022-08-30T01:03:13.277Z,15.89
2022-08-30T01:05:44.681Z,15.91
2022-08-30T01:08:16.831Z,15.91
2022-08-30T01:10:47.460Z,15.98
2022-08-30T01:13:18.088Z,16.02
2022-08-30T01:15:48.857Z,16.00
2022-08-30T01:18:22.285Z,16.00
2022-08-30T01:21:03.058Z,15.98
2022-08-30T01:23:36.431Z,15.95
2022-08-30T01:26:09.075Z,15.93
2022-08-30T01:28:41.015Z,15.94
2022-08-30T01:31:11.473Z,15.84
2022-08-30T01:33:41.573Z,15.87
2022-08-30T01:36:14.734Z,15.83
2022-08-30T01:38:50.134Z,15.80
2022-08-30T01:41:22.363Z,15.76
2022-08-30T01:43:55.075Z,15.75
2022-08-30T01:46:27.991Z,15.72
2022-08-30T01:49:00.175Z,15.69
2022-08-30T01:51:31.563Z,15.62
2022-08-30T01:54:03.715Z,15.61
2022-08-30T01:56:33.903Z,15.67
2022-08-30T01:59:04.705Z,15.67
2022-08-30T02:01:37.353Z,15.66
2022-08-30T02:04:09.800Z,15.69
2022-08-30T02:06:40.883Z,15.76
2022-08-30T02:09:13.039Z,15.74
2022-08-30T02:11:43.803Z,15.77
2022-08-30T02:14:14.205Z,15.77
2022-08-30T02:16:44.507Z,15.77
2022-08-30T02:19:14.806Z,15.80
2022-08-30T02:21:45.393Z,15.71
2022-08-30T02:24:17.103Z,15.74
2022-08-30T02:26:47.486Z,15.75
2022-08-30T02:29:17.683Z,15.73
2022-08-30T02:31:48.085Z,15.74
2022-08-30T02:34:18.833Z,15.77
2022-08-30T02:36:49.173Z,15.77
2022-08-30T02:39:20.635Z,15.74
2022-08-30T02:41:51.274Z,15.71
2022-08-30T02:44:21.403Z,15.70
2022-08-30T02:46:51.513Z,15.68
2022-08-30T02:49:37.486Z,15.62
2022-08-30T02:52:08.396Z,15.63
2022-08-30T02:54:40.395Z,15.67
2022-08-30T02:57:19.924Z,15.62
2022-08-30T02:59:50.626Z,15.64
2022-08-30T03:02:22.581Z,15.63
2022-08-30T03:04:53.565Z,15.61
2022-08-30T03:07:23.655Z,15.62
2022-08-30T03:09:55.437Z,15.64
2022-08-30T03:12:25.903Z,15.64
2022-08-30T03:14:56.631Z,15.70
2022-08-30T03:17:26.959Z,15.64
2022-08-30T03:19:57.405Z,15.56
2022-08-30T03:22:27.633Z,15.54
2022-08-30T03:25:00.405Z,15.50
2022-08-30T03:27:31.594Z,15.50
2022-08-30T03:30:01.863Z,15.42
2022-08-30T03:32:32.065Z,15.40
2022-08-30T03:35:02.463Z,15.32
2022-08-30T03:37:32.553Z,15.28
2022-08-30T03:40:05.172Z,15.23
2022-08-30T03:42:37.322Z,15.14
2022-08-30T03:45:09.645Z,15.17
2022-08-30T03:47:41.071Z,15.15
2022-08-30T03:50:13.425Z,15.04
2022-08-30T03:52:45.234Z,14.78
2022-08-30T03:55:16.813Z,15.01
2022-08-30T03:57:47.153Z,14.97
2022-08-30T04:00:18.317Z,14.96
2022-08-30T04:02:48.233Z,15.05
2022-08-30T04:05:18.714Z,15.02
2022-08-30T04:07:49.320Z,15.04
2022-08-30T04:10:22.223Z,15.07
2022-08-30T04:12:53.135Z,15.02
2022-08-30T04:15:23.315Z,15.08
2022-08-30T04:17:55.264Z,15.05
2022-08-30T04:20:25.604Z,15.13
2022-08-30T04:22:55.885Z,15.07
2022-08-30T04:25:27.413Z,15.07
2022-08-30T04:27:57.938Z,15.10
2022-08-30T04:30:28.046Z,15.14
2022-08-30T04:32:59.103Z,15.11
2022-08-30T04:35:29.405Z,15.13
2022-08-30T04:38:00.176Z,15.16
2022-08-30T04:40:31.702Z,15.21
2022-08-30T04:43:02.252Z,15.21
2022-08-30T04:45:32.661Z,15.28
2022-08-30T04:48:03.454Z,15.39
2022-08-30T04:50:33.933Z,15.43
2022-08-30T04:53:15.710Z,15.43
2022-08-30T04:55:47.433Z,15.47
2022-08-30T04:58:18.464Z,15.49
2022-08-30T05:00:48.611Z,15.44
2022-08-30T05:03:19.113Z,15.46
2022-08-30T05:05:51.013Z,15.48
2022-08-30T05:08:24.981Z,15.42
2022-08-30T05:10:56.603Z,15.43
2022-08-30T05:13:35.708Z,15.45
2022-08-30T05:16:10.230Z,15.50
2022-08-30T05:18:40.673Z,15.41
2022-08-30T05:21:12.773Z,15.49
2022-08-30T05:23:43.883Z,15.49
2022-08-30T05:26:20.535Z,15.53
2022-08-30T05:28:50.903Z,15.61
2022-08-30T05:31:23.053Z,15.61
2022-08-30T05:33:55.332Z,15.60
2022-08-30T05:36:28.892Z,15.67
2022-08-30T05:39:00.763Z,15.65
2022-08-30T05:41:32.983Z,15.73
2022-08-30T05:44:05.879Z,15.74
2022-08-30T05:46:36.299Z,15.77
2022-08-30T05:49:09.136Z,15.75
2022-08-30T05:51:41.127Z,15.75
2022-08-30T05:54:15.348Z,15.78
2022-08-30T05:56:48.388Z,15.80
2022-08-30T05:59:18.889Z,15.97
2022-08-30T06:01:49.938Z,15.98
2022-08-30T06:04:20.377Z,16.06
2022-08-30T06:06:50.458Z,16.10
2022-08-30T06:09:21.314Z,16.08
2022-08-30T06:11:53.173Z,16.25
2022-08-30T06:14:23.484Z,16.32
2022-08-30T06:16:54.322Z,16.33
2022-08-30T06:19:24.401Z,16.48
2022-08-30T06:21:55.075Z,16.57
2022-08-30T06:24:41.079Z,16.65
2022-08-30T06:27:17.394Z,16.76
2022-08-30T06:29:48.093Z,16.95
2022-08-30T06:32:18.465Z,16.93
2022-08-30T06:34:48.630Z,16.81
2022-08-30T06:37:21.972Z,16.82
2022-08-30T06:40:00.888Z,16.81
2022-08-30T06:42:34.382Z,16.80
2022-08-30T06:45:10.958Z,16.82
2022-08-30T06:47:42.246Z,16.81
2022-08-30T06:50:17.562Z,16.82
2022-08-30T06:52:48.673Z,16.91
2022-08-30T06:55:19.655Z,16.80
2022-08-30T06:57:51.456Z,16.82
2022-08-30T07:00:21.908Z,16.86
2022-08-30T07:02:52.300Z,16.87
2022-08-30T07:05:24.026Z,16.90
2022-08-30T07:07:54.713Z,16.96
2022-08-30T07:10:25.072Z,17.05
2022-08-30T07:12:58.095Z,17.09
2022-08-30T07:15:32.989Z,17.15
2022-08-30T07:18:26.435Z,17.08
2022-08-30T07:20:56.672Z,17.21
2022-08-30T07:23:27.176Z,17.19
2022-08-30T07:25:57.144Z,17.20
2022-08-30T07:28:28.959Z,17.11
2022-08-30T07:30:59.375Z,16.94
2022-08-30T07:33:30.163Z,16.89
2022-08-30T07:36:01.450Z,16.78
2022-08-30T07:38:32.843Z,16.62
2022-08-30T07:41:03.877Z,16.58
2022-08-30T07:43:37.453Z,16.68
2022-08-30T07:46:10.279Z,16.64
2022-08-30T07:48:45.063Z,16.64
2022-08-30T07:51:17.153Z,16.72
2022-08-30T07:53:48.386Z,16.81
2022-08-30T07:56:18.745Z,16.81
2022-08-30T07:58:53.945Z,16.80
2022-08-30T08:01:26.438Z,16.82
2022-08-30T08:03:59.358Z,16.79
2022-08-30T08:06:34.821Z,16.76
2022-08-30T08:09:05.836Z,16.70
2022-08-30T08:11:38.162Z,16.81
2022-08-30T08:14:11.255Z,16.85
2022-08-30T08:16:45.033Z,16.84
2022-08-30T08:19:15.981Z,16.87
2022-08-30T08:21:46.284Z,16.93
2022-08-30T08:24:17.455Z,16.97
2022-08-30T08:26:48.695Z,17.03
2022-08-30T08:29:21.541Z,16.87
2022-08-30T08:31:53.203Z,16.94
2022-08-30T08:34:25.086Z,17.01
2022-08-30T08:36:57.309Z,16.99
2022-08-30T08:39:27.475Z,17.03
2022-08-30T08:42:06.725Z,16.97
2022-08-30T08:44:54.855Z,16.88
2022-08-30T08:47:34.577Z,16.88
2022-08-30T08:50:09.746Z,16.53
2022-08-30T08:53:13.272Z,16.44
2022-08-30T08:55:48.811Z,16.58
2022-08-30T08:58:26.323Z,16.32
2022-08-30T09:01:05.505Z,16.09
2022-08-30T09:03:37.005Z,16.12
2022-08-30T09:06:26.375Z,16.05
2022-08-30T09:08:57.758Z,15.77
2022-08-30T09:11:57.284Z,15.81
2022-08-30T09:14:35.656Z,15.99
2022-08-30T09:17:12.395Z,15.92
2022-08-30T09:19:45.699Z,15.80
2022-08-30T09:22:27.218Z,15.64
2022-08-30T09:25:02.936Z,15.55
2022-08-30T09:27:38.119Z,15.59
2022-08-30T09:30:14.856Z,15.50
2022-08-30T09:32:54.349Z,15.49
2022-08-30T09:35:27.198Z,15.51
2022-08-30T09:38:06.192Z,15.45
2022-08-30T09:40:45.702Z,15.43
2022-08-30T09:43:25.701Z,15.52
2022-08-30T09:46:10.931Z,15.44
2022-08-30T09:48:49.815Z,15.56
2022-08-30T09:51:53.016Z,15.63
2022-08-30T09:54:31.123Z,15.71
2022-08-30T09:57:12.707Z,15.75
2022-08-30T09:59:53.425Z,16.02
2022-08-30T10:02:45.395Z,16.17
2022-08-30T10:05:27.424Z,16.29
2022-08-30T10:08:12.650Z,16.38
2022-08-30T10:10:50.775Z,16.28
2022-08-30T10:13:54.610Z,16.18
2022-08-30T10:16:37.555Z,16.21
2022-08-30T10:19:22.516Z,16.24
2022-08-30T10:22:00.742Z,16.33
2022-08-30T10:24:37.199Z,16.38
2022-08-30T10:27:12.643Z,16.52
2022-08-30T10:29:48.955Z,16.67
2022-08-30T10:32:26.816Z,16.66
2022-08-30T10:35:03.545Z,16.67
2022-08-30T10:37:41.875Z,16.84
2022-08-30T10:40:37.938Z,16.76
2022-08-30T10:43:16.827Z,17.03
2022-08-30T10:45:50.914Z,17.13
2022-08-30T10:48:26.785Z,17.30
2022-08-30T10:51:04.656Z,17.84
2022-08-30T10:53:45.671Z,18.07
2022-08-30T10:56:20.893Z,18.25
2022-08-30T10:58:52.620Z,18.15
2022-08-30T11:01:38.703Z,18.07
2022-08-30T11:04:45.386Z,18.14
2022-08-30T11:07:28.911Z,18.29
2022-08-30T11:10:24.135Z,18.75
2022-08-30T11:13:01.550Z,19.00
2022-08-30T11:15:36.845Z,18.65
2022-08-30T11:18:13.713Z,18.86
2022-08-30T11:20:49.372Z,18.82
2022-08-30T11:23:32.616Z,19.01
2022-08-30T11:26:13.994Z,18.72
2022-08-30T11:29:30.943Z,19.00
2022-08-30T11:32:25.484Z,18.65
2022-08-30T11:35:01.436Z,18.52
2022-08-30T11:37:38.980Z,18.55
2022-08-30T11:40:13.349Z,18.29
2022-08-30T11:42:50.560Z,18.33
2022-08-30T11:45:55.369Z,18.35
2022-08-30T11:48:53.586Z,18.51
2022-08-30T11:52:23.831Z,18.61
2022-08-30T11:55:01.682Z,18.69
2022-08-30T11:57:43.734Z,18.69
2022-08-30T12:00:34.391Z,18.83
2022-08-30T12:03:09.983Z,19.01
2022-08-30T12:05:57.526Z,18.90
2022-08-30T12:08:49.044Z,18.92
2022-08-30T12:12:04.696Z,18.74
2022-08-30T12:15:01.536Z,19.06
2022-08-30T12:18:14.750Z,18.99
2022-08-30T12:20:50.293Z,18.99
2022-08-30T12:23:32.743Z,18.80
2022-08-30T12:26:20.584Z,18.59
2022-08-30T12:28:55.994Z,18.60
2022-08-30T12:31:28.694Z,18.80
2022-08-30T12:34:04.355Z,18.59
2022-08-30T12:36:39.910Z,18.43
2022-08-30T12:39:13.623Z,18.58
2022-08-30T12:41:45.521Z,18.48
2022-08-30T12:44:19.266Z,18.42
2022-08-30T12:46:58.993Z,18.44
2022-08-30T12:49:34.742Z,18.35
2022-08-30T12:52:20.485Z,18.38
2022-08-30T12:54:50.964Z,18.59
2022-08-30T12:57:40.042Z,18.63
2022-08-30T13:00:13.861Z,18.63
2022-08-30T13:02:52.244Z,18.67
2022-08-30T13:05:53.102Z,18.67
2022-08-30T13:08:37.165Z,18.72
2022-08-30T13:11:11.264Z,18.74
2022-08-30T13:13:44.421Z,19.00
2022-08-30T13:16:29.608Z,19.02
2022-08-30T13:19:25.444Z,18.73
2022-08-30T13:22:00.123Z,18.62
2022-08-30T13:24:31.025Z,18.52
2022-08-30T13:27:11.605Z,18.45
2022-08-30T13:29:42.116Z,18.46
2022-08-30T13:32:14.163Z,18.49
2022-08-30T13:34:46.228Z,18.55
2022-08-30T13:40:17.993Z,18.75
2022-08-30T13:42:48.385Z,18.94
2022-08-30T13:48:14.474Z,19.08
2022-08-30T13:50:48.690Z,19.10
2022-08-30T13:53:52.096Z,19.18
2022-08-30T13:56:14.219Z,19.15
2022-08-30T13:58:44.972Z,19.11
2022-08-30T14:01:18.649Z,19.11
2022-08-30T14:07:11.916Z,18.94
2022-08-30T14:09:32.784Z,18.97
2022-08-30T14:12:03.324Z,18.78
2022-08-30T14:14:42.682Z,18.66
2022-08-30T14:17:17.086Z,18.53
2022-08-30T14:19:48.315Z,18.45
2022-08-30T14:22:21.137Z,18.44
2022-08-30T14:24:54.495Z,18.37
2022-08-30T14:27:31.905Z,18.51
2022-08-30T14:30:02.155Z,18.55
2022-08-30T14:32:32.801Z,18.44
2022-08-30T14:35:02.952Z,18.61
2022-08-30T14:37:34.593Z,18.63
2022-08-30T14:40:06.972Z,18.68
2022-08-30T14:42:37.294Z,18.82
2022-08-30T14:45:08.462Z,18.90
2022-08-30T14:47:39.055Z,18.94
2022-08-30T14:50:10.819Z,19.01
2022-08-30T14:52:41.258Z,18.95
2022-08-30T14:55:17.383Z,18.90
2022-08-30T14:57:48.905Z,18.93
2022-08-30T15:00:18.724Z,18.97
2022-08-30T15:02:51.384Z,18.97
2022-08-30T15:05:21.717Z,18.92
2022-08-30T15:07:53.285Z,18.81
2022-08-30T15:10:25.205Z,18.75
2022-08-30T15:12:55.694Z,18.84
2022-08-30T15:15:26.156Z,18.70
2022-08-30T15:17:56.643Z,18.70
2022-08-30T15:20:27.796Z,18.75
2022-08-30T15:22:58.234Z,18.74
2022-08-30T15:25:29.945Z,18.49
2022-08-30T15:28:00.295Z,18.20
2022-08-30T15:30:31.033Z,18.06
2022-08-30T15:33:01.474Z,18.03
2022-08-30T15:35:31.490Z,17.90
2022-08-30T15:38:01.766Z,17.83
2022-08-30T15:40:34.502Z,17.86
2022-08-30T15:43:05.745Z,18.04
2022-08-30T15:45:36.352Z,18.30
2022-08-30T15:48:06.786Z,18.39
2022-08-30T15:50:37.348Z,18.55
2022-08-30T15:53:08.292Z,18.51
2022-08-30T15:55:40.139Z,18.48
2022-08-30T15:58:10.263Z,18.46
2022-08-30T16:00:44.891Z,18.51
2022-08-30T16:03:15.546Z,18.46
2022-08-30T16:05:46.264Z,18.19
2022-08-30T16:08:16.334Z,18.02
2022-08-30T16:10:52.066Z,17.99
2022-08-30T16:13:22.319Z,18.14
2022-08-30T16:15:53.630Z,18.04
2022-08-30T16:18:23.783Z,18.10
2022-08-30T16:21:05.455Z,17.97
2022-08-30T16:23:37.300Z,17.87
2022-08-30T16:26:18.754Z,17.74
2022-08-30T16:28:50.356Z,17.60
2022-08-30T16:31:24.975Z,17.53
2022-08-30T16:34:04.196Z,17.49
2022-08-30T16:36:41.266Z,17.44
2022-08-30T16:39:13.071Z,17.46
2022-08-30T16:42:04.674Z,17.42
2022-08-30T16:44:37.820Z,17.38
2022-08-30T16:47:19.257Z,17.22
2022-08-30T16:49:54.116Z,17.23
2022-08-30T16:52:26.824Z,17.10
2022-08-30T16:55:16.513Z,17.02
2022-08-30T17:01:20.522Z,16.84
2022-08-30T17:03:54.546Z,16.84
2022-08-30T17:06:29.376Z,16.87
2022-08-30T17:09:07.915Z,16.89
2022-08-30T17:11:46.266Z,16.86
2022-08-30T17:14:27.846Z,16.93
2022-08-30T17:17:04.584Z,16.87
2022-08-30T17:19:45.408Z,16.83
2022-08-30T17:22:21.790Z,16.78
2022-08-30T17:24:59.302Z,16.72
2022-08-30T17:27:36.520Z,16.61
2022-08-30T17:30:27.366Z,16.52
2022-08-30T17:33:04.935Z,16.49
2022-08-30T17:35:43.932Z,16.39
2022-08-30T17:38:20.972Z,16.31
2022-08-30T17:41:08.517Z,16.35
2022-08-30T17:43:45.206Z,16.30
2022-08-30T17:46:25.378Z,16.17
2022-08-30T17:49:10.444Z,16.12
2022-08-30T17:52:04.309Z,16.05
2022-08-30T17:54:40.398Z,16.05
2022-08-30T17:57:22.955Z,15.98
2022-08-30T18:03:00.591Z,15.91
2022-08-30T18:05:44.693Z,15.88
2022-08-30T18:08:18.756Z,15.83
2022-08-30T18:10:54.993Z,15.70
2022-08-30T18:13:41.954Z,15.61
2022-08-30T18:16:12.382Z,15.52
2022-08-30T18:21:51.959Z,15.37
2022-08-30T18:24:28.714Z,15.36
2022-08-30T18:26:59.626Z,15.31
2022-08-30T18:29:37.190Z,15.32
2022-08-30T18:32:09.339Z,15.17
2022-08-30T18:37:32.441Z,15.08
2022-08-30T18:40:21.564Z,15.04
2022-08-30T18:43:00.436Z,14.97
2022-08-30T18:48:29.653Z,14.78
2022-08-30T18:51:05.277Z,14.72
2022-08-30T18:56:33.262Z,14.55
2022-08-30T18:59:09.495Z,14.50
2022-08-30T19:01:52.757Z,14.48
2022-08-30T19:07:20.365Z,14.38
2022-08-30T19:13:02.950Z,14.32
2022-08-30T19:26:06.796Z,14.32
2022-08-30T19:28:54.784Z,14.35
2022-08-30T19:34:20.934Z,14.38
2022-08-30T19:36:52.494Z,14.38
2022-08-30T19:39:23.206Z,14.38
2022-08-30T19:41:53.894Z,14.39
2022-08-30T19:44:28.060Z,14.40
2022-08-30T19:47:00.531Z,14.45
2022-08-30T19:49:35.804Z,14.44
2022-08-30T19:52:09.282Z,14.41
2022-08-30T19:57:47.366Z,14.34
2022-08-30T20:00:21.105Z,14.31
2022-08-30T20:02:52.141Z,14.31
2022-08-30T20:05:23.093Z,14.24
2022-08-30T20:07:53.957Z,14.19
2022-08-30T20:10:28.848Z,14.19
2022-08-30T20:12:59.477Z,14.17
2022-08-30T20:15:31.486Z,14.11
2022-08-30T20:18:05.488Z,14.11
2022-08-30T20:20:36.930Z,14.05
2022-08-30T20:23:08.126Z,14.02
2022-08-30T20:24:26.994Z,15.43
2022-08-30T20:25:39.421Z,14.00
2022-08-30T20:28:10.077Z,13.91
2022-08-30T20:30:42.046Z,13.85
2022-08-30T20:33:18.706Z,13.81
2022-08-30T20:35:50.446Z,13.74
2022-08-30T20:38:22.215Z,13.72
2022-08-30T20:40:54.343Z,13.70
2022-08-30T20:43:26.767Z,13.69
2022-08-30T20:45:58.826Z,13.66
2022-08-30T20:48:29.065Z,13.62
2022-08-30T20:50:59.685Z,13.63
2022-08-30T20:53:29.935Z,13.68
2022-08-30T20:56:00.282Z,13.75
2022-08-30T20:58:31.224Z,13.78
2022-08-30T21:01:03.206Z,13.81
2022-08-30T21:03:33.425Z,13.90
2022-08-30T21:06:03.797Z,13.95
2022-08-30T21:08:34.136Z,13.97
2022-08-30T21:11:04.535Z,13.96
2022-08-30T21:13:34.658Z,14.00
2022-08-30T21:16:07.581Z,14.02
2022-08-30T21:18:39.375Z,14.06
2022-08-30T21:21:14.658Z,14.05
2022-08-30T21:23:45.317Z,14.05
2022-08-30T21:26:16.025Z,14.14
2022-08-30T21:28:47.995Z,14.16
2022-08-30T21:31:22.492Z,14.15
2022-08-30T21:33:54.472Z,14.11
2022-08-30T21:36:44.735Z,14.14
2022-08-30T21:39:21.285Z,14.17
2022-08-30T21:41:54.786Z,14.19
2022-08-30T21:44:27.278Z,14.20
2022-08-30T21:46:59.095Z,14.21
2022-08-30T21:49:29.346Z,14.25
2022-08-30T21:52:00.214Z,14.33
2022-08-30T21:54:31.617Z,14.27
2022-08-30T21:57:05.251Z,14.26
2022-08-30T21:59:35.952Z,14.23
2022-08-30T22:02:07.926Z,14.26
2022-08-30T22:04:38.885Z,14.28
2022-08-30T22:07:09.722Z,14.25
2022-08-30T22:09:40.131Z,14.26
2022-08-30T22:12:10.602Z,14.28
2022-08-30T22:14:41.262Z,14.31
2022-08-30T22:17:13.027Z,14.30
2022-08-30T22:19:43.192Z,14.32
2022-08-30T22:22:14.422Z,14.34
2022-08-30T22:24:44.562Z,14.32
2022-08-30T22:27:15.211Z,14.35
2022-08-30T22:29:45.402Z,14.35
2022-08-30T22:32:17.021Z,14.39
2022-08-30T22:34:47.802Z,14.40
2022-08-30T22:37:18.071Z,14.40
2022-08-30T22:39:51.592Z,14.43
2022-08-30T22:42:22.082Z,14.43
2022-08-30T22:44:53.253Z,14.43
2022-08-30T22:47:24.971Z,14.40
2022-08-30T22:49:56.082Z,14.38
2022-08-30T22:52:26.221Z,14.33
2022-08-30T22:55:01.031Z,14.36
2022-08-30T22:57:31.582Z,14.41
2022-08-30T23:00:03.132Z,14.43
2022-08-30T23:02:35.087Z,14.44
2022-08-30T23:05:06.912Z,14.44
2022-08-30T23:07:37.221Z,14.44
2022-08-30T23:10:09.377Z,14.40
2022-08-30T23:12:39.747Z,14.41
2022-08-30T23:15:13.666Z,14.40
2022-08-30T23:17:45.155Z,14.38
2022-08-30T23:20:15.765Z,14.35
2022-08-30T23:22:46.178Z,14.40
2022-08-30T23:25:41.442Z,14.40
2022-08-30T23:28:32.544Z,14.38
2022-08-30T23:31:28.960Z,14.39
2022-08-30T23:34:18.087Z,14.42
2022-08-30T23:37:06.223Z,14.42
2022-08-30T23:39:53.697Z,14.44
2022-08-30T23:42:41.108Z,14.42
2022-08-30T23:45:29.313Z,14.43
2022-08-30T23:48:16.844Z,14.45
2022-08-30T23:51:05.428Z,14.47
2022-08-30T23:53:52.867Z,14.22
2022-08-30T23:56:40.457Z,14.47
2022-08-30T23:59:27.967Z,14.48
